sensor_id;sensor_type;location;lat;lon;timestamp;P1;durP1;ratioP1;P2;durP2;ratioP2
5981;SDS011;3018;48.730;9.336;2024-03-02T00:00:28;17.88;;;13.45;;
5981;SDS011;3018;48.730;9.336;2024-03-02T00:02:55;18.13;;;13.55;;
5981;SDS011;3018;48.730;9.336;2024-03-02T00:05:21;17.67;;;12.70;;
5981;SDS011;3018;48.730;9.336;2024-03-02T00:07:52;18.98;;;13.23;;
5981;SDS011;3018;48.730;9.336;2024-03-02T00:10:21;18.05;;;13.02;;
5981;SDS011;3018;48.730;9.336;2024-03-02T00:12:50;15.50;;;11.43;;
5981;SDS011;3018;48.730;9.336;2024-03-02T00:15:23;14.73;;;11.73;;
5981;SDS011;3018;48.730;9.336;2024-03-02T00:17:53;13.88;;;11.57;;
5981;SDS011;3018;48.730;9.336;2024-03-02T00:20:21;16.00;;;12.15;;
5981;SDS011;3018;48.730;9.336;2024-03-02T00:22:48;15.07;;;11.88;;
5981;SDS011;3018;48.730;9.336;2024-03-02T00:25:14;16.55;;;12.48;;
5981;SDS011;3018;48.730;9.336;2024-03-02T00:27:42;15.23;;;11.80;;
5981;SDS011;3018;48.730;9.336;2024-03-02T00:30:12;15.13;;;12.55;;
5981;SDS011;3018;48.730;9.336;2024-03-02T00:32:58;17.33;;;12.60;;
5981;SDS011;3018;48.730;9.336;2024-03-02T00:35:25;18.02;;;12.13;;
5981;SDS011;3018;48.730;9.336;2024-03-02T00:37:51;21.35;;;13.13;;
5981;SDS011;3018;48.730;9.336;2024-03-02T00:40:17;17.13;;;11.82;;
5981;SDS011;3018;48.730;9.336;2024-03-02T00:42:45;16.70;;;11.40;;
5981;SDS011;3018;48.730;9.336;2024-03-02T00:45:11;14.43;;;11.73;;
5981;SDS011;3018;48.730;9.336;2024-03-02T00:47:38;12.13;;;10.65;;
5981;SDS011;3018;48.730;9.336;2024-03-02T00:50:05;16.73;;;12.63;;
5981;SDS011;3018;48.730;9.336;2024-03-02T00:52:31;16.30;;;12.32;;
5981;SDS011;3018;48.730;9.336;2024-03-02T00:54:58;15.23;;;12.82;;
5981;SDS011;3018;48.730;9.336;2024-03-02T00:57:24;15.77;;;11.77;;
5981;SDS011;3018;48.730;9.336;2024-03-02T00:59:53;16.98;;;12.18;;
5981;SDS011;3018;48.730;9.336;2024-03-02T01:02:19;17.15;;;12.45;;
5981;SDS011;3018;48.730;9.336;2024-03-02T01:04:46;18.63;;;12.70;;
5981;SDS011;3018;48.730;9.336;2024-03-02T01:07:12;16.25;;;12.50;;
5981;SDS011;3018;48.730;9.336;2024-03-02T01:09:38;17.17;;;12.07;;
5981;SDS011;3018;48.730;9.336;2024-03-02T01:12:06;17.48;;;12.25;;
5981;SDS011;3018;48.730;9.336;2024-03-02T01:14:32;15.00;;;11.95;;
5981;SDS011;3018;48.730;9.336;2024-03-02T01:17:01;14.88;;;12.07;;
5981;SDS011;3018;48.730;9.336;2024-03-02T01:19:28;17.95;;;12.48;;
5981;SDS011;3018;48.730;9.336;2024-03-02T01:21:54;17.90;;;13.27;;
5981;SDS011;3018;48.730;9.336;2024-03-02T01:24:21;18.65;;;12.27;;
5981;SDS011;3018;48.730;9.336;2024-03-02T01:26:47;16.13;;;12.50;;
5981;SDS011;3018;48.730;9.336;2024-03-02T01:29:13;16.35;;;12.63;;
5981;SDS011;3018;48.730;9.336;2024-03-02T01:31:39;16.48;;;11.98;;
5981;SDS011;3018;48.730;9.336;2024-03-02T01:34:08;18.58;;;12.00;;
5981;SDS011;3018;48.730;9.336;2024-03-02T01:36:34;15.45;;;12.02;;
5981;SDS011;3018;48.730;9.336;2024-03-02T01:39:01;22.73;;;12.98;;
5981;SDS011;3018;48.730;9.336;2024-03-02T01:41:27;17.70;;;12.45;;
5981;SDS011;3018;48.730;9.336;2024-03-02T01:43:54;16.90;;;12.25;;
5981;SDS011;3018;48.730;9.336;2024-03-02T01:46:20;16.90;;;12.52;;
5981;SDS011;3018;48.730;9.336;2024-03-02T01:48:46;17.40;;;11.90;;
5981;SDS011;3018;48.730;9.336;2024-03-02T01:51:14;16.77;;;11.27;;
5981;SDS011;3018;48.730;9.336;2024-03-02T01:53:40;17.35;;;11.65;;
5981;SDS011;3018;48.730;9.336;2024-03-02T01:56:06;14.57;;;11.25;;
5981;SDS011;3018;48.730;9.336;2024-03-02T01:58:33;15.45;;;11.80;;
5981;SDS011;3018;48.730;9.336;2024-03-02T02:00:59;15.95;;;11.48;;
5981;SDS011;3018;48.730;9.336;2024-03-02T02:03:25;16.30;;;11.60;;
5981;SDS011;3018;48.730;9.336;2024-03-02T02:05:51;14.73;;;11.85;;
5981;SDS011;3018;48.730;9.336;2024-03-02T02:08:19;14.05;;;11.75;;
5981;SDS011;3018;48.730;9.336;2024-03-02T02:10:45;14.57;;;10.75;;
5981;SDS011;3018;48.730;9.336;2024-03-02T02:13:11;16.52;;;11.23;;
5981;SDS011;3018;48.730;9.336;2024-03-02T02:15:38;15.38;;;11.25;;
5981;SDS011;3018;48.730;9.336;2024-03-02T02:18:04;17.27;;;11.45;;
5981;SDS011;3018;48.730;9.336;2024-03-02T02:20:30;18.50;;;10.98;;
5981;SDS011;3018;48.730;9.336;2024-03-02T02:22:58;16.75;;;11.27;;
5981;SDS011;3018;48.730;9.336;2024-03-02T02:25:25;19.30;;;10.98;;
5981;SDS011;3018;48.730;9.336;2024-03-02T02:27:51;14.38;;;10.13;;
5981;SDS011;3018;48.730;9.336;2024-03-02T02:30:21;13.77;;;10.55;;
5981;SDS011;3018;48.730;9.336;2024-03-02T02:32:47;12.73;;;10.35;;
5981;SDS011;3018;48.730;9.336;2024-03-02T02:35:13;11.52;;;10.10;;
5981;SDS011;3018;48.730;9.336;2024-03-02T02:37:40;13.40;;;9.93;;
5981;SDS011;3018;48.730;9.336;2024-03-02T02:40:08;13.73;;;10.48;;
5981;SDS011;3018;48.730;9.336;2024-03-02T02:42:34;12.98;;;9.75;;
5981;SDS011;3018;48.730;9.336;2024-03-02T02:45:00;13.98;;;10.75;;
5981;SDS011;3018;48.730;9.336;2024-03-02T02:47:27;13.63;;;10.95;;
5981;SDS011;3018;48.730;9.336;2024-03-02T02:49:54;15.98;;;10.80;;
5981;SDS011;3018;48.730;9.336;2024-03-02T02:52:21;13.93;;;10.65;;
5981;SDS011;3018;48.730;9.336;2024-03-02T02:54:47;12.52;;;10.50;;
5981;SDS011;3018;48.730;9.336;2024-03-02T02:57:14;12.98;;;10.85;;
5981;SDS011;3018;48.730;9.336;2024-03-02T02:59:41;13.40;;;10.85;;
5981;SDS011;3018;48.730;9.336;2024-03-02T03:02:07;13.82;;;10.85;;
5981;SDS011;3018;48.730;9.336;2024-03-02T03:04:33;13.15;;;10.48;;
5981;SDS011;3018;48.730;9.336;2024-03-02T03:06:59;13.88;;;10.48;;
5981;SDS011;3018;48.730;9.336;2024-03-02T03:09:26;14.05;;;10.57;;
5981;SDS011;3018;48.730;9.336;2024-03-02T03:11:52;15.10;;;10.80;;
5981;SDS011;3018;48.730;9.336;2024-03-02T03:14:20;13.57;;;10.90;;
5981;SDS011;3018;48.730;9.336;2024-03-02T03:16:46;20.35;;;12.18;;
5981;SDS011;3018;48.730;9.336;2024-03-02T03:19:13;16.23;;;12.75;;
5981;SDS011;3018;48.730;9.336;2024-03-02T03:21:39;14.80;;;11.52;;
5981;SDS011;3018;48.730;9.336;2024-03-02T03:24:06;15.88;;;11.80;;
5981;SDS011;3018;48.730;9.336;2024-03-02T03:26:32;14.90;;;11.82;;
5981;SDS011;3018;48.730;9.336;2024-03-02T03:29:01;17.75;;;11.65;;
5981;SDS011;3018;48.730;9.336;2024-03-02T03:31:29;12.73;;;10.63;;
5981;SDS011;3018;48.730;9.336;2024-03-02T03:33:55;14.23;;;10.73;;
5981;SDS011;3018;48.730;9.336;2024-03-02T03:36:21;15.40;;;11.40;;
5981;SDS011;3018;48.730;9.336;2024-03-02T03:38:47;14.18;;;10.90;;
5981;SDS011;3018;48.730;9.336;2024-03-02T03:41:14;12.93;;;10.68;;
5981;SDS011;3018;48.730;9.336;2024-03-02T03:43:40;13.23;;;10.10;;
5981;SDS011;3018;48.730;9.336;2024-03-02T03:46:06;12.52;;;10.50;;
5981;SDS011;3018;48.730;9.336;2024-03-02T03:48:34;12.88;;;10.57;;
5981;SDS011;3018;48.730;9.336;2024-03-02T03:51:00;13.57;;;10.48;;
5981;SDS011;3018;48.730;9.336;2024-03-02T03:53:26;14.00;;;10.95;;
5981;SDS011;3018;48.730;9.336;2024-03-02T03:55:53;16.20;;;10.85;;
5981;SDS011;3018;48.730;9.336;2024-03-02T03:58:19;13.93;;;10.48;;
5981;SDS011;3018;48.730;9.336;2024-03-02T04:00:46;15.05;;;11.57;;
5981;SDS011;3018;48.730;9.336;2024-03-02T04:03:12;11.38;;;9.57;;
5981;SDS011;3018;48.730;9.336;2024-03-02T04:05:39;12.77;;;10.57;;
5981;SDS011;3018;48.730;9.336;2024-03-02T04:08:06;13.32;;;10.48;;
5981;SDS011;3018;48.730;9.336;2024-03-02T04:10:33;15.65;;;11.18;;
5981;SDS011;3018;48.730;9.336;2024-03-02T04:13:00;14.35;;;10.52;;
5981;SDS011;3018;48.730;9.336;2024-03-02T04:15:26;16.23;;;11.13;;
5981;SDS011;3018;48.730;9.336;2024-03-02T04:17:52;17.73;;;12.05;;
5981;SDS011;3018;48.730;9.336;2024-03-02T04:20:20;16.52;;;12.00;;
5981;SDS011;3018;48.730;9.336;2024-03-02T04:22:47;14.65;;;11.93;;
5981;SDS011;3018;48.730;9.336;2024-03-02T04:25:14;15.95;;;11.30;;
5981;SDS011;3018;48.730;9.336;2024-03-02T04:27:40;16.35;;;11.48;;
5981;SDS011;3018;48.730;9.336;2024-03-02T04:30:07;18.10;;;11.95;;
5981;SDS011;3018;48.730;9.336;2024-03-02T04:32:33;15.05;;;11.45;;
5981;SDS011;3018;48.730;9.336;2024-03-02T04:35:01;14.38;;;10.93;;
5981;SDS011;3018;48.730;9.336;2024-03-02T04:37:27;15.18;;;11.20;;
5981;SDS011;3018;48.730;9.336;2024-03-02T04:39:54;14.50;;;11.50;;
5981;SDS011;3018;48.730;9.336;2024-03-02T04:42:21;14.98;;;11.80;;
5981;SDS011;3018;48.730;9.336;2024-03-02T04:44:47;15.43;;;11.52;;
5981;SDS011;3018;48.730;9.336;2024-03-02T04:47:14;15.48;;;11.45;;
5981;SDS011;3018;48.730;9.336;2024-03-02T04:49:40;14.68;;;10.70;;
5981;SDS011;3018;48.730;9.336;2024-03-02T04:52:06;12.85;;;10.45;;
5981;SDS011;3018;48.730;9.336;2024-03-02T04:54:32;13.90;;;10.38;;
5981;SDS011;3018;48.730;9.336;2024-03-02T04:57:20;15.00;;;11.38;;
5981;SDS011;3018;48.730;9.336;2024-03-02T04:59:45;14.65;;;10.60;;
5981;SDS011;3018;48.730;9.336;2024-03-02T05:02:11;17.13;;;12.32;;
5981;SDS011;3018;48.730;9.336;2024-03-02T05:04:39;16.48;;;11.45;;
5981;SDS011;3018;48.730;9.336;2024-03-02T05:07:05;14.88;;;10.75;;
5981;SDS011;3018;48.730;9.336;2024-03-02T05:09:31;12.60;;;10.20;;
5981;SDS011;3018;48.730;9.336;2024-03-02T05:11:57;16.23;;;11.50;;
5981;SDS011;3018;48.730;9.336;2024-03-02T05:14:49;14.00;;;10.38;;
5981;SDS011;3018;48.730;9.336;2024-03-02T05:17:15;15.77;;;11.30;;
5981;SDS011;3018;48.730;9.336;2024-03-02T05:19:41;15.52;;;11.82;;
5981;SDS011;3018;48.730;9.336;2024-03-02T05:22:08;15.82;;;11.75;;
5981;SDS011;3018;48.730;9.336;2024-03-02T05:24:34;15.35;;;11.52;;
5981;SDS011;3018;48.730;9.336;2024-03-02T05:27:00;16.20;;;11.93;;
5981;SDS011;3018;48.730;9.336;2024-03-02T05:29:26;16.70;;;12.15;;
5981;SDS011;3018;48.730;9.336;2024-03-02T05:31:54;15.75;;;11.35;;
5981;SDS011;3018;48.730;9.336;2024-03-02T05:34:20;16.50;;;11.80;;
5981;SDS011;3018;48.730;9.336;2024-03-02T05:36:46;15.23;;;11.32;;
5981;SDS011;3018;48.730;9.336;2024-03-02T05:39:13;18.83;;;11.93;;
5981;SDS011;3018;48.730;9.336;2024-03-02T05:41:39;16.95;;;11.75;;
5981;SDS011;3018;48.730;9.336;2024-03-02T05:44:05;18.05;;;12.77;;
5981;SDS011;3018;48.730;9.336;2024-03-02T05:46:31;16.05;;;11.77;;
5981;SDS011;3018;48.730;9.336;2024-03-02T05:48:59;15.65;;;11.95;;
5981;SDS011;3018;48.730;9.336;2024-03-02T05:51:25;15.40;;;11.38;;
5981;SDS011;3018;48.730;9.336;2024-03-02T05:53:52;15.98;;;11.68;;
5981;SDS011;3018;48.730;9.336;2024-03-02T05:56:18;18.13;;;12.45;;
5981;SDS011;3018;48.730;9.336;2024-03-02T05:58:44;14.70;;;11.25;;
5981;SDS011;3018;48.730;9.336;2024-03-02T06:01:22;15.57;;;11.57;;
5981;SDS011;3018;48.730;9.336;2024-03-02T06:03:53;14.25;;;10.77;;
5981;SDS011;3018;48.730;9.336;2024-03-02T06:06:20;17.05;;;10.88;;
5981;SDS011;3018;48.730;9.336;2024-03-02T06:08:47;13.75;;;10.90;;
5981;SDS011;3018;48.730;9.336;2024-03-02T06:11:13;14.30;;;10.73;;
5981;SDS011;3018;48.730;9.336;2024-03-02T06:13:39;17.90;;;11.68;;
5981;SDS011;3018;48.730;9.336;2024-03-02T06:16:06;14.55;;;11.18;;
5981;SDS011;3018;48.730;9.336;2024-03-02T06:18:33;17.67;;;12.73;;
5981;SDS011;3018;48.730;9.336;2024-03-02T06:20:59;18.13;;;13.13;;
5981;SDS011;3018;48.730;9.336;2024-03-02T06:23:27;21.55;;;14.13;;
5981;SDS011;3018;48.730;9.336;2024-03-02T06:25:53;21.55;;;14.05;;
5981;SDS011;3018;48.730;9.336;2024-03-02T06:28:19;22.52;;;14.40;;
5981;SDS011;3018;48.730;9.336;2024-03-02T06:30:46;19.08;;;13.55;;
5981;SDS011;3018;48.730;9.336;2024-03-02T06:33:12;17.17;;;12.77;;
5981;SDS011;3018;48.730;9.336;2024-03-02T06:35:38;21.90;;;13.95;;
5981;SDS011;3018;48.730;9.336;2024-03-02T06:38:05;18.92;;;13.02;;
5981;SDS011;3018;48.730;9.336;2024-03-02T06:40:32;17.55;;;12.98;;
5981;SDS011;3018;48.730;9.336;2024-03-02T06:42:59;16.48;;;13.05;;
5981;SDS011;3018;48.730;9.336;2024-03-02T06:45:25;23.05;;;14.77;;
5981;SDS011;3018;48.730;9.336;2024-03-02T06:47:51;21.95;;;14.60;;
5981;SDS011;3018;48.730;9.336;2024-03-02T06:50:18;26.85;;;14.10;;
5981;SDS011;3018;48.730;9.336;2024-03-02T06:52:44;26.15;;;15.93;;
5981;SDS011;3018;48.730;9.336;2024-03-02T06:55:10;21.65;;;14.13;;
5981;SDS011;3018;48.730;9.336;2024-03-02T06:57:38;17.50;;;13.50;;
5981;SDS011;3018;48.730;9.336;2024-03-02T07:00:04;17.33;;;11.75;;
5981;SDS011;3018;48.730;9.336;2024-03-02T07:02:33;13.90;;;12.15;;
5981;SDS011;3018;48.730;9.336;2024-03-02T07:05:00;16.73;;;12.00;;
5981;SDS011;3018;48.730;9.336;2024-03-02T07:07:26;18.13;;;12.93;;
5981;SDS011;3018;48.730;9.336;2024-03-02T07:09:52;17.70;;;12.38;;
5981;SDS011;3018;48.730;9.336;2024-03-02T07:12:28;16.63;;;12.20;;
5981;SDS011;3018;48.730;9.336;2024-03-02T07:14:55;16.15;;;11.98;;
5981;SDS011;3018;48.730;9.336;2024-03-02T07:17:43;16.30;;;12.88;;
5981;SDS011;3018;48.730;9.336;2024-03-02T07:20:10;15.95;;;11.75;;
5981;SDS011;3018;48.730;9.336;2024-03-02T07:22:37;17.02;;;12.23;;
5981;SDS011;3018;48.730;9.336;2024-03-02T07:25:05;16.05;;;13.02;;
5981;SDS011;3018;48.730;9.336;2024-03-02T07:27:32;19.00;;;13.30;;
5981;SDS011;3018;48.730;9.336;2024-03-02T07:30:00;18.60;;;13.95;;
5981;SDS011;3018;48.730;9.336;2024-03-02T07:32:26;20.83;;;13.20;;
5981;SDS011;3018;48.730;9.336;2024-03-02T07:34:52;17.20;;;13.57;;
5981;SDS011;3018;48.730;9.336;2024-03-02T07:37:18;17.73;;;13.10;;
5981;SDS011;3018;48.730;9.336;2024-03-02T07:39:45;18.80;;;15.05;;
5981;SDS011;3018;48.730;9.336;2024-03-02T07:42:11;19.55;;;14.55;;
5981;SDS011;3018;48.730;9.336;2024-03-02T07:44:38;19.50;;;14.43;;
5981;SDS011;3018;48.730;9.336;2024-03-02T07:47:05;18.98;;;14.15;;
5981;SDS011;3018;48.730;9.336;2024-03-02T07:49:32;25.27;;;15.75;;
5981;SDS011;3018;48.730;9.336;2024-03-02T07:51:58;20.65;;;15.23;;
5981;SDS011;3018;48.730;9.336;2024-03-02T07:54:24;22.50;;;15.48;;
5981;SDS011;3018;48.730;9.336;2024-03-02T07:56:51;21.33;;;16.52;;
5981;SDS011;3018;48.730;9.336;2024-03-02T07:59:17;20.90;;;15.07;;
5981;SDS011;3018;48.730;9.336;2024-03-02T08:01:43;22.50;;;16.40;;
5981;SDS011;3018;48.730;9.336;2024-03-02T08:04:11;19.15;;;15.50;;
5981;SDS011;3018;48.730;9.336;2024-03-02T08:06:37;25.05;;;15.73;;
5981;SDS011;3018;48.730;9.336;2024-03-02T08:09:03;24.15;;;16.33;;
5981;SDS011;3018;48.730;9.336;2024-03-02T08:11:34;21.63;;;16.27;;
5981;SDS011;3018;48.730;9.336;2024-03-02T08:14:01;22.17;;;16.52;;
5981;SDS011;3018;48.730;9.336;2024-03-02T08:16:27;21.75;;;16.10;;
5981;SDS011;3018;48.730;9.336;2024-03-02T08:18:53;26.10;;;16.92;;
5981;SDS011;3018;48.730;9.336;2024-03-02T08:21:23;22.98;;;16.15;;
5981;SDS011;3018;48.730;9.336;2024-03-02T08:23:49;24.42;;;16.33;;
5981;SDS011;3018;48.730;9.336;2024-03-02T08:26:16;20.02;;;15.73;;
5981;SDS011;3018;48.730;9.336;2024-03-02T08:28:42;21.75;;;16.42;;
5981;SDS011;3018;48.730;9.336;2024-03-02T08:31:09;24.13;;;16.58;;
5981;SDS011;3018;48.730;9.336;2024-03-02T08:33:35;23.10;;;16.02;;
5981;SDS011;3018;48.730;9.336;2024-03-02T08:36:02;22.42;;;15.77;;
5981;SDS011;3018;48.730;9.336;2024-03-02T08:38:30;21.00;;;15.13;;
5981;SDS011;3018;48.730;9.336;2024-03-02T08:40:56;21.30;;;15.35;;
5981;SDS011;3018;48.730;9.336;2024-03-02T08:43:22;22.35;;;15.65;;
5981;SDS011;3018;48.730;9.336;2024-03-02T08:45:48;23.63;;;15.98;;
5981;SDS011;3018;48.730;9.336;2024-03-02T08:48:15;23.70;;;16.35;;
5981;SDS011;3018;48.730;9.336;2024-03-02T08:50:41;19.55;;;15.52;;
5981;SDS011;3018;48.730;9.336;2024-03-02T08:53:08;22.73;;;17.20;;
5981;SDS011;3018;48.730;9.336;2024-03-02T08:55:35;20.95;;;16.15;;
5981;SDS011;3018;48.730;9.336;2024-03-02T08:58:02;21.80;;;14.55;;
5981;SDS011;3018;48.730;9.336;2024-03-02T09:00:28;22.42;;;14.95;;
5981;SDS011;3018;48.730;9.336;2024-03-02T09:02:54;19.35;;;15.05;;
5981;SDS011;3018;48.730;9.336;2024-03-02T09:05:20;23.25;;;16.60;;
5981;SDS011;3018;48.730;9.336;2024-03-02T09:07:47;22.50;;;16.17;;
5981;SDS011;3018;48.730;9.336;2024-03-02T09:10:13;20.88;;;13.18;;
5981;SDS011;3018;48.730;9.336;2024-03-02T09:12:41;16.52;;;13.38;;
5981;SDS011;3018;48.730;9.336;2024-03-02T09:15:07;16.45;;;12.55;;
5981;SDS011;3018;48.730;9.336;2024-03-02T09:17:33;16.65;;;12.18;;
5981;SDS011;3018;48.730;9.336;2024-03-02T09:20:00;13.73;;;10.65;;
5981;SDS011;3018;48.730;9.336;2024-03-02T09:22:26;11.75;;;10.18;;
5981;SDS011;3018;48.730;9.336;2024-03-02T09:24:52;14.48;;;10.68;;
5981;SDS011;3018;48.730;9.336;2024-03-02T09:27:18;11.35;;;10.13;;
5981;SDS011;3018;48.730;9.336;2024-03-02T09:29:46;10.25;;;9.13;;
5981;SDS011;3018;48.730;9.336;2024-03-02T09:32:12;11.43;;;9.70;;
5981;SDS011;3018;48.730;9.336;2024-03-02T09:34:39;10.27;;;8.30;;
5981;SDS011;3018;48.730;9.336;2024-03-02T09:37:05;12.65;;;7.93;;
5981;SDS011;3018;48.730;9.336;2024-03-02T09:39:31;8.80;;;7.90;;
5981;SDS011;3018;48.730;9.336;2024-03-02T09:41:58;12.13;;;8.25;;
5981;SDS011;3018;48.730;9.336;2024-03-02T09:44:24;7.53;;;6.72;;
5981;SDS011;3018;48.730;9.336;2024-03-02T09:46:52;6.57;;;5.95;;
5981;SDS011;3018;48.730;9.336;2024-03-02T09:49:19;7.50;;;6.47;;
5981;SDS011;3018;48.730;9.336;2024-03-02T09:51:46;7.60;;;6.90;;
5981;SDS011;3018;48.730;9.336;2024-03-02T09:54:13;7.30;;;6.70;;
5981;SDS011;3018;48.730;9.336;2024-03-02T09:56:39;7.65;;;6.95;;
5981;SDS011;3018;48.730;9.336;2024-03-02T09:59:05;7.28;;;6.53;;
5981;SDS011;3018;48.730;9.336;2024-03-02T10:01:32;7.30;;;6.55;;
5981;SDS011;3018;48.730;9.336;2024-03-02T10:03:59;8.63;;;6.50;;
5981;SDS011;3018;48.730;9.336;2024-03-02T10:06:27;7.97;;;7.13;;
5981;SDS011;3018;48.730;9.336;2024-03-02T10:08:54;7.55;;;6.85;;
5981;SDS011;3018;48.730;9.336;2024-03-02T10:11:27;7.45;;;6.32;;
5981;SDS011;3018;48.730;9.336;2024-03-02T10:14:07;6.53;;;5.93;;
5981;SDS011;3018;48.730;9.336;2024-03-02T10:16:34;6.22;;;5.72;;
5981;SDS011;3018;48.730;9.336;2024-03-02T10:19:16;6.50;;;5.90;;
5981;SDS011;3018;48.730;9.336;2024-03-02T10:21:42;5.47;;;4.97;;
5981;SDS011;3018;48.730;9.336;2024-03-02T10:24:09;5.28;;;4.85;;
5981;SDS011;3018;48.730;9.336;2024-03-02T10:26:35;6.05;;;5.13;;
5981;SDS011;3018;48.730;9.336;2024-03-02T10:29:02;5.97;;;4.50;;
5981;SDS011;3018;48.730;9.336;2024-03-02T10:31:28;4.55;;;4.25;;
5981;SDS011;3018;48.730;9.336;2024-03-02T10:33:55;4.88;;;4.47;;
5981;SDS011;3018;48.730;9.336;2024-03-02T10:36:22;4.40;;;4.10;;
5981;SDS011;3018;48.730;9.336;2024-03-02T10:38:50;4.03;;;3.72;;
5981;SDS011;3018;48.730;9.336;2024-03-02T10:41:20;4.18;;;3.88;;
5981;SDS011;3018;48.730;9.336;2024-03-02T10:43:49;3.53;;;3.33;;
5981;SDS011;3018;48.730;9.336;2024-03-02T10:46:15;3.50;;;3.20;;
5981;SDS011;3018;48.730;9.336;2024-03-02T10:48:42;3.75;;;3.55;;
5981;SDS011;3018;48.730;9.336;2024-03-02T10:51:11;3.30;;;3.10;;
5981;SDS011;3018;48.730;9.336;2024-03-02T10:53:38;3.30;;;3.10;;
5981;SDS011;3018;48.730;9.336;2024-03-02T10:56:05;3.17;;;3.00;;
5981;SDS011;3018;48.730;9.336;2024-03-02T10:58:33;3.00;;;2.90;;
5981;SDS011;3018;48.730;9.336;2024-03-02T11:00:59;2.92;;;2.72;;
5981;SDS011;3018;48.730;9.336;2024-03-02T11:03:28;2.90;;;2.70;;
5981;SDS011;3018;48.730;9.336;2024-03-02T11:05:55;2.58;;;2.47;;
5981;SDS011;3018;48.730;9.336;2024-03-02T11:08:22;2.45;;;2.35;;
5981;SDS011;3018;48.730;9.336;2024-03-02T11:10:54;3.10;;;2.90;;
5981;SDS011;3018;48.730;9.336;2024-03-02T11:13:24;2.78;;;2.67;;
5981;SDS011;3018;48.730;9.336;2024-03-02T11:15:55;3.30;;;2.95;;
5981;SDS011;3018;48.730;9.336;2024-03-02T11:18:22;3.08;;;2.88;;
5981;SDS011;3018;48.730;9.336;2024-03-02T11:20:48;2.65;;;2.50;;
5981;SDS011;3018;48.730;9.336;2024-03-02T11:23:15;2.63;;;2.45;;
5981;SDS011;3018;48.730;9.336;2024-03-02T11:25:41;2.42;;;2.33;;
5981;SDS011;3018;48.730;9.336;2024-03-02T11:28:09;2.53;;;2.33;;
5981;SDS011;3018;48.730;9.336;2024-03-02T11:30:50;2.65;;;2.45;;
5981;SDS011;3018;48.730;9.336;2024-03-02T11:33:18;3.10;;;2.30;;
5981;SDS011;3018;48.730;9.336;2024-03-02T11:35:48;2.05;;;1.98;;
5981;SDS011;3018;48.730;9.336;2024-03-02T11:38:15;1.88;;;1.77;;
5981;SDS011;3018;48.730;9.336;2024-03-02T11:40:42;2.25;;;2.05;;
5981;SDS011;3018;48.730;9.336;2024-03-02T11:43:09;1.65;;;1.63;;
5981;SDS011;3018;48.730;9.336;2024-03-02T11:45:36;1.95;;;1.85;;
5981;SDS011;3018;48.730;9.336;2024-03-02T11:48:05;2.17;;;1.52;;
5981;SDS011;3018;48.730;9.336;2024-03-02T11:50:33;2.25;;;1.50;;
5981;SDS011;3018;48.730;9.336;2024-03-02T11:53:00;2.08;;;1.20;;
5981;SDS011;3018;48.730;9.336;2024-03-02T11:55:27;1.40;;;1.40;;
5981;SDS011;3018;48.730;9.336;2024-03-02T11:57:54;1.30;;;1.30;;
5981;SDS011;3018;48.730;9.336;2024-03-02T12:00:21;1.38;;;1.33;;
5981;SDS011;3018;48.730;9.336;2024-03-02T12:02:48;0.85;;;0.80;;
5981;SDS011;3018;48.730;9.336;2024-03-02T12:05:25;1.63;;;0.90;;
5981;SDS011;3018;48.730;9.336;2024-03-02T12:07:54;0.90;;;0.90;;
5981;SDS011;3018;48.730;9.336;2024-03-02T12:10:21;0.70;;;0.70;;
5981;SDS011;3018;48.730;9.336;2024-03-02T12:12:47;0.80;;;0.80;;
5981;SDS011;3018;48.730;9.336;2024-03-02T12:15:13;0.80;;;0.80;;
5981;SDS011;3018;48.730;9.336;2024-03-02T12:17:41;1.25;;;0.93;;
5981;SDS011;3018;48.730;9.336;2024-03-02T12:20:08;0.70;;;0.70;;
5981;SDS011;3018;48.730;9.336;2024-03-02T12:22:37;0.70;;;0.70;;
5981;SDS011;3018;48.730;9.336;2024-03-02T12:25:04;0.88;;;0.88;;
5981;SDS011;3018;48.730;9.336;2024-03-02T12:27:30;0.80;;;0.80;;
5981;SDS011;3018;48.730;9.336;2024-03-02T12:29:56;1.30;;;1.05;;
5981;SDS011;3018;48.730;9.336;2024-03-02T12:32:23;0.70;;;0.70;;
5981;SDS011;3018;48.730;9.336;2024-03-02T12:34:50;1.85;;;1.00;;
5981;SDS011;3018;48.730;9.336;2024-03-02T12:37:17;0.90;;;0.90;;
5981;SDS011;3018;48.730;9.336;2024-03-02T12:39:44;1.00;;;1.00;;
5981;SDS011;3018;48.730;9.336;2024-03-02T12:42:11;0.90;;;0.90;;
5981;SDS011;3018;48.730;9.336;2024-03-02T12:44:37;0.98;;;0.98;;
5981;SDS011;3018;48.730;9.336;2024-03-02T12:47:03;1.42;;;1.13;;
5981;SDS011;3018;48.730;9.336;2024-03-02T12:49:30;0.80;;;0.80;;
5981;SDS011;3018;48.730;9.336;2024-03-02T12:51:58;0.80;;;0.80;;
5981;SDS011;3018;48.730;9.336;2024-03-02T12:54:25;0.73;;;0.73;;
5981;SDS011;3018;48.730;9.336;2024-03-02T12:56:52;0.70;;;0.70;;
5981;SDS011;3018;48.730;9.336;2024-03-02T12:59:19;1.95;;;0.60;;
5981;SDS011;3018;48.730;9.336;2024-03-02T13:01:49;2.08;;;0.70;;
5981;SDS011;3018;48.730;9.336;2024-03-02T13:04:16;0.50;;;0.50;;
5981;SDS011;3018;48.730;9.336;2024-03-02T13:06:42;0.70;;;0.70;;
5981;SDS011;3018;48.730;9.336;2024-03-02T13:09:10;0.50;;;0.50;;
5981;SDS011;3018;48.730;9.336;2024-03-02T13:11:39;0.60;;;0.60;;
5981;SDS011;3018;48.730;9.336;2024-03-02T13:14:06;0.47;;;0.47;;
5981;SDS011;3018;48.730;9.336;2024-03-02T13:16:32;0.43;;;0.43;;
5981;SDS011;3018;48.730;9.336;2024-03-02T13:19:03;0.68;;;0.68;;
5981;SDS011;3018;48.730;9.336;2024-03-02T13:21:30;0.65;;;0.60;;
5981;SDS011;3018;48.730;9.336;2024-03-02T13:23:56;0.50;;;0.50;;
5981;SDS011;3018;48.730;9.336;2024-03-02T13:26:24;2.65;;;0.50;;
5981;SDS011;3018;48.730;9.336;2024-03-02T13:28:50;0.65;;;0.60;;
5981;SDS011;3018;48.730;9.336;2024-03-02T13:31:17;0.93;;;0.70;;
5981;SDS011;3018;48.730;9.336;2024-03-02T13:33:43;1.48;;;0.60;;
5981;SDS011;3018;48.730;9.336;2024-03-02T13:36:09;0.68;;;0.68;;
5981;SDS011;3018;48.730;9.336;2024-03-02T13:38:35;0.43;;;0.43;;
5981;SDS011;3018;48.730;9.336;2024-03-02T13:41:02;0.50;;;0.50;;
5981;SDS011;3018;48.730;9.336;2024-03-02T13:43:29;0.52;;;0.52;;
5981;SDS011;3018;48.730;9.336;2024-03-02T13:45:57;0.80;;;0.60;;
5981;SDS011;3018;48.730;9.336;2024-03-02T13:48:24;0.57;;;0.57;;
5981;SDS011;3018;48.730;9.336;2024-03-02T13:50:50;0.60;;;0.60;;
5981;SDS011;3018;48.730;9.336;2024-03-02T13:53:17;0.85;;;0.60;;
5981;SDS011;3018;48.730;9.336;2024-03-02T13:55:44;0.55;;;0.50;;
5981;SDS011;3018;48.730;9.336;2024-03-02T13:58:10;0.77;;;0.70;;
5981;SDS011;3018;48.730;9.336;2024-03-02T14:00:38;2.47;;;1.20;;
5981;SDS011;3018;48.730;9.336;2024-03-02T14:03:05;1.55;;;0.60;;
5981;SDS011;3018;48.730;9.336;2024-03-02T14:05:32;0.60;;;0.60;;
5981;SDS011;3018;48.730;9.336;2024-03-02T14:07:58;0.65;;;0.50;;
5981;SDS011;3018;48.730;9.336;2024-03-02T14:10:25;0.88;;;0.60;;
5981;SDS011;3018;48.730;9.336;2024-03-02T14:12:52;0.68;;;0.68;;
5981;SDS011;3018;48.730;9.336;2024-03-02T14:15:20;2.38;;;0.63;;
5981;SDS011;3018;48.730;9.336;2024-03-02T14:17:47;0.77;;;0.60;;
5981;SDS011;3018;48.730;9.336;2024-03-02T14:20:14;0.55;;;0.55;;
5981;SDS011;3018;48.730;9.336;2024-03-02T14:22:45;1.05;;;0.50;;
5981;SDS011;3018;48.730;9.336;2024-03-02T14:25:11;0.40;;;0.40;;
5981;SDS011;3018;48.730;9.336;2024-03-02T14:27:37;0.55;;;0.55;;
5981;SDS011;3018;48.730;9.336;2024-03-02T14:30:03;1.75;;;0.40;;
5981;SDS011;3018;48.730;9.336;2024-03-02T14:32:30;0.68;;;0.68;;
5981;SDS011;3018;48.730;9.336;2024-03-02T14:34:58;0.50;;;0.50;;
5981;SDS011;3018;48.730;9.336;2024-03-02T14:37:24;1.75;;;0.57;;
5981;SDS011;3018;48.730;9.336;2024-03-02T14:39:50;0.50;;;0.50;;
5981;SDS011;3018;48.730;9.336;2024-03-02T14:42:16;1.90;;;0.73;;
5981;SDS011;3018;48.730;9.336;2024-03-02T14:44:43;0.88;;;0.88;;
5981;SDS011;3018;48.730;9.336;2024-03-02T14:47:09;1.17;;;0.70;;
5981;SDS011;3018;48.730;9.336;2024-03-02T14:49:35;0.57;;;0.57;;
5981;SDS011;3018;48.730;9.336;2024-03-02T14:52:06;0.60;;;0.60;;
5981;SDS011;3018;48.730;9.336;2024-03-02T14:54:34;0.50;;;0.50;;
5981;SDS011;3018;48.730;9.336;2024-03-02T14:57:00;0.68;;;0.60;;